Terminal Aerodrome Forecast
Issued by NWS Albany, NY

Home | Current Version | Previous Version | Text Only | Print | Product List | Glossary On
Versions: 1 2 3 4 5 6 7 8 9 10 11 12 13 14 15 16 17 18 19 20 21 22
812
FTUS41 KALY 290520
TAFALB
TAF
KALB 290520Z 2906/3006 16010G15KT P6SM BKN070
     FM291300 15010G19KT 5SM -RA BR OVC050
     FM291600 16007KT 4SM -RA BR SCT015 OVC025
     FM291900 15007KT 6SM -SHRA BR OVC015
     FM300300 15004KT P6SM SCT010 BKN025=

USA.gov is the U.S. government's official web portal to all federal, state and local government web resources and services.